Time;durP1;ratioP1;P1;durP2;ratioP2;P2;SDS_P1;SDS_P2;PMS_P1;PMS_P2;Temp;Humidity;BMP_temperature;BMP_pressure;BME280_temperature;BME280_humidity;BME280_pressure;Samples;Min_cycle;Max_cycle;Signal;HPM_P1;HPM_P2
2021/07/28 00:00:34;;;;;;;10.20;6.82;;;26.60;52.90;;;;;;4992782;28;20031;-76
2021/07/28 00:03:00;;;;;;;10.57;5.75;;;26.60;52.90;;;;;;4992787;28;20027;-76
2021/07/28 00:05:26;;;;;;;7.32;6.03;;;26.50;53.00;;;;;;4992650;28;20076;-75
2021/07/28 00:07:52;;;;;;;8.77;6.20;;;26.50;53.00;;;;;;4992601;28;20076;-75
2021/07/28 00:10:18;;;;;;;10.60;7.13;;;26.40;53.10;;;;;;4992526;28;20037;-75
2021/07/28 00:12:44;;;;;;;12.35;9.13;;;26.40;53.30;;;;;;4992643;28;20416;-75
2021/07/28 00:15:10;;;;;;;21.92;11.85;;;26.30;53.50;;;;;;4992851;28;20029;-76
2021/07/28 00:17:42;;;;;;;14.43;8.93;;;26.30;53.70;;;;;;4992633;28;20027;-75
2021/07/28 00:20:28;;;;;;;16.45;9.25;;;26.20;53.80;;;;;;4992500;28;20105;-75
2021/07/28 00:25:38;;;;;;;11.77;7.53;;;26.10;54.20;;;;;;4994143;28;20150;-82
2021/07/28 00:28:04;;;;;;;14.25;9.13;;;26.10;54.50;;;;;;4994061;28;20113;-82
2021/07/28 00:30:31;;;;;;;20.38;9.38;;;26.00;54.80;;;;;;4994846;28;20029;-82
2021/07/28 00:32:56;;;;;;;18.08;10.30;;;25.90;55.00;;;;;;4993931;28;20098;-81
2021/07/28 00:35:22;;;;;;;14.57;8.35;;;25.90;55.20;;;;;;4994469;28;20137;-82
2021/07/28 00:37:49;;;;;;;18.88;9.07;;;25.80;55.50;;;;;;4993622;28;20480;-82
2021/07/28 00:40:16;;;;;;;16.15;7.97;;;25.80;55.70;;;;;;4994744;28;20018;-83
2021/07/28 00:42:41;;;;;;;9.55;8.30;;;25.80;56.00;;;;;;4994319;28;20026;-84
2021/07/28 00:45:08;;;;;;;14.90;8.27;;;25.70;56.10;;;;;;4995269;28;20400;-82
2021/07/28 00:47:33;;;;;;;19.77;8.80;;;25.70;56.20;;;;;;4998897;28;20037;-82
2021/07/28 00:50:04;;;;;;;13.30;8.75;;;25.60;56.40;;;;;;4999687;28;20035;-81
2021/07/28 00:52:32;;;;;;;15.52;10.70;;;25.60;56.70;;;;;;5001357;28;20125;-81
2021/07/28 00:54:58;;;;;;;22.60;13.88;;;25.60;56.80;;;;;;5000827;28;20033;-81
2021/07/28 00:57:24;;;;;;;13.10;8.98;;;25.50;56.90;;;;;;4998092;28;20026;-81
2021/07/28 00:59:49;;;;;;;20.83;11.15;;;25.50;57.20;;;;;;4997622;28;20030;-82
2021/07/28 01:02:15;;;;;;;14.05;10.07;;;25.50;58.10;;;;;;4996170;28;20027;-75
2021/07/28 01:04:41;;;;;;;16.80;10.70;;;25.50;57.60;;;;;;4978896;28;20503;-78
2021/07/28 01:07:07;;;;;;;17.63;11.85;;;25.40;57.70;;;;;;4996080;28;20030;-79
2021/07/28 01:09:33;;;;;;;14.68;9.52;;;25.40;57.90;;;;;;4995832;28;20109;-78
2021/07/28 01:12:00;;;;;;;17.52;10.23;;;25.40;58.10;;;;;;4995891;28;20535;-78
2021/07/28 01:14:25;;;;;;;22.95;10.88;;;25.30;58.20;;;;;;4996067;28;20094;-77
2021/07/28 01:16:53;;;;;;;15.85;9.63;;;25.30;58.40;;;;;;4996033;28;20102;-79
2021/07/28 01:19:22;;;;;;;16.42;9.38;;;25.20;58.60;;;;;;4996047;28;20032;-78
2021/07/28 01:21:49;;;;;;;19.27;10.05;;;25.20;58.90;;;;;;4996166;28;20023;-79
2021/07/28 01:24:16;;;;;;;13.40;10.68;;;25.20;59.20;;;;;;4995935;28;20026;-79
2021/07/28 01:26:43;;;;;;;14.00;10.18;;;25.10;59.60;;;;;;4995968;28;20026;-76
2021/07/28 01:29:11;;;;;;;16.67;11.30;;;25.00;59.90;;;;;;4995563;28;20030;-75
2021/07/28 01:31:41;;;;;;;15.10;10.80;;;25.00;60.20;;;;;;4995662;28;20019;-76
2021/07/28 01:34:08;;;;;;;20.25;10.80;;;24.90;60.50;;;;;;4995676;28;20354;-76
2021/07/28 01:36:35;;;;;;;18.58;10.65;;;24.90;60.80;;;;;;4995423;28;20054;-75
2021/07/28 01:39:04;;;;;;;14.30;10.60;;;24.80;60.90;;;;;;4995613;28;20031;-75
2021/07/28 01:41:33;;;;;;;19.55;10.60;;;24.80;61.10;;;;;;4995351;28;20495;-75
2021/07/28 01:43:59;;;;;;;17.98;11.70;;;24.70;61.20;;;;;;4977821;28;20124;-75
2021/07/28 01:46:25;;;;;;;18.25;10.48;;;24.70;61.40;;;;;;4977914;28;20073;-75
2021/07/28 01:48:51;;;;;;;17.25;10.60;;;24.70;62.10;;;;;;4995542;28;20428;-83
2021/07/28 01:51:16;;;;;;;19.52;10.90;;;24.70;61.60;;;;;;4997437;28;20038;-84
2021/07/28 01:53:43;;;;;;;20.35;14.73;;;24.60;61.50;;;;;;4995702;28;20029;-76
2021/07/28 01:56:10;;;;;;;20.75;11.25;;;24.70;61.80;;;;;;4994204;28;20018;-76
2021/07/28 01:58:39;;;;;;;18.92;11.95;;;24.60;61.90;;;;;;4994903;28;20018;-76
2021/07/28 02:01:05;;;;;;;20.92;11.32;;;24.60;62.00;;;;;;4977590;28;20030;-76
2021/07/28 02:03:31;;;;;;;22.50;11.80;;;24.60;62.20;;;;;;4996817;28;20029;-84
2021/07/28 02:05:56;;;;;;;21.02;11.73;;;24.50;62.20;;;;;;4996477;28;20396;-84
2021/07/28 02:08:22;;;;;;;19.80;11.00;;;24.60;62.40;;;;;;4996977;28;20085;-84
2021/07/28 02:10:50;;;;;;;17.88;11.20;;;24.50;62.40;;;;;;4995627;28;20026;-76
2021/07/28 02:13:20;;;;;;;23.67;10.82;;;24.50;62.50;;;;;;4994607;28;20022;-76
2021/07/28 02:15:47;;;;;;;15.93;10.73;;;24.50;62.60;;;;;;4994608;28;20018;-75
2021/07/28 02:18:13;;;;;;;17.80;10.98;;;24.50;62.70;;;;;;4994453;28;20456;-76
2021/07/28 02:20:39;;;;;;;17.95;11.52;;;24.60;62.80;;;;;;4994368;28;20042;-77
2021/07/28 02:23:05;;;;;;;20.95;10.82;;;24.50;62.80;;;;;;4994513;28;20097;-76
2021/07/28 02:25:31;;;;;;;16.05;10.50;;;24.50;62.70;;;;;;4994464;28;20377;-76
2021/07/28 02:27:57;;;;;;;19.35;10.80;;;24.60;62.80;;;;;;4994204;28;20022;-76
2021/07/28 02:30:23;;;;;;;13.68;11.18;;;24.60;62.70;;;;;;4994121;28;20033;-76
2021/07/28 02:32:49;;;;;;;14.30;11.07;;;24.60;62.60;;;;;;4994189;28;20480;-75
2021/07/28 02:35:15;;;;;;;16.65;10.10;;;24.70;62.60;;;;;;4994328;28;20030;-76
2021/07/28 02:37:45;;;;;;;19.63;11.68;;;24.70;62.40;;;;;;4994198;28;20107;-75
2021/07/28 02:40:13;;;;;;;19.80;13.93;;;24.80;62.30;;;;;;4994509;28;20026;-78
2021/07/28 02:42:39;;;;;;;19.73;12.00;;;24.80;62.20;;;;;;4994211;28;20381;-78
2021/07/28 02:45:05;;;;;;;18.67;11.70;;;24.80;62.10;;;;;;4995680;28;20030;-83
2021/07/28 02:47:31;;;;;;;23.58;14.18;;;24.90;62.00;;;;;;4979128;28;20473;-83
2021/07/28 02:49:57;;;;;;;27.70;15.18;;;25.00;62.00;;;;;;4995799;28;20053;-84
2021/07/28 02:52:23;;;;;;;21.92;13.27;;;25.00;61.80;;;;;;4995854;28;20050;-84
2021/07/28 02:54:49;;;;;;;22.30;12.70;;;25.00;61.60;;;;;;4996036;28;20108;-83
2021/07/28 02:57:14;;;;;;;23.08;14.00;;;25.10;61.50;;;;;;4995888;28;20100;-84
2021/07/28 02:59:40;;;;;;;20.02;12.07;;;25.20;61.30;;;;;;4995829;28;20467;-84
2021/07/28 03:02:06;;;;;;;20.05;12.02;;;25.40;61.00;;;;;;4995968;28;20053;-80
2021/07/28 03:04:32;;;;;;;18.27;12.20;;;25.60;60.60;;;;;;4993672;28;20057;-79
2021/07/28 03:06:57;;;;;;;20.65;13.90;;;25.70;60.20;;;;;;4993885;28;20144;-79
2021/07/28 03:09:23;;;;;;;20.65;12.57;;;25.70;60.00;;;;;;4993391;28;20053;-80
2021/07/28 03:11:49;;;;;;;40.92;13.45;;;25.70;60.00;;;;;;4976238;28;20031;-79
2021/07/28 03:14:14;;;;;;;98.05;42.53;;;25.70;60.00;;;;;;4993681;28;20032;-78
2021/07/28 03:16:40;;;;;;;30.33;16.30;;;25.60;59.80;;;;;;4993498;28;20543;-79
2021/07/28 03:19:06;;;;;;;34.38;17.70;;;25.60;60.00;;;;;;4993437;28;20125;-77
2021/07/28 03:21:33;;;;;;;24.33;12.93;;;25.60;60.00;;;;;;4993334;28;20459;-77
2021/07/28 03:23:59;;;;;;;18.45;11.45;;;25.60;60.00;;;;;;4993491;28;20030;-77
2021/07/28 03:26:24;;;;;;;24.70;12.57;;;25.60;60.00;;;;;;4993502;28;20109;-77
2021/07/28 03:28:50;;;;;;;20.42;12.50;;;25.60;59.90;;;;;;4993286;28;20114;-76
2021/07/28 03:31:16;;;;;;;21.25;11.95;;;25.60;59.90;;;;;;4993415;28;20069;-77
2021/07/28 03:33:41;;;;;;;26.70;11.75;;;25.60;59.90;;;;;;4993211;28;20126;-77
2021/07/28 03:36:07;;;;;;;15.95;11.52;;;25.60;60.00;;;;;;4993110;28;20026;-77
2021/07/28 03:38:33;;;;;;;18.70;12.07;;;25.60;60.00;;;;;;4993153;28;20500;-78
2021/07/28 03:40:59;;;;;;;19.58;11.82;;;25.50;60.10;;;;;;4993588;28;20424;-77
2021/07/28 03:43:25;;;;;;;20.52;11.40;;;25.50;60.10;;;;;;4993332;28;20058;-77
2021/07/28 03:45:51;;;;;;;19.40;11.70;;;25.50;60.20;;;;;;4993254;28;20029;-78
2021/07/28 03:48:16;;;;;;;18.95;12.23;;;25.40;60.30;;;;;;4992770;28;20030;-79
2021/07/28 03:50:42;;;;;;;21.02;11.27;;;25.40;60.50;;;;;;4992969;28;20023;-79
2021/07/28 03:53:08;;;;;;;14.60;11.02;;;25.40;60.80;;;;;;4992955;28;20101;-77
2021/07/28 03:55:35;;;;;;;17.27;11.73;;;25.30;61.00;;;;;;4992521;28;20030;-77
2021/07/28 03:58:00;;;;;;;17.83;12.25;;;25.40;61.30;;;;;;4992770;28;20552;-78
2021/07/28 04:00:26;;;;;;;17.08;12.05;;;25.40;61.50;;;;;;4992942;28;20105;-78
2021/07/28 04:02:52;;;;;;;19.77;13.05;;;25.40;61.50;;;;;;4993127;28;20030;-78
2021/07/28 04:05:17;;;;;;;25.27;13.98;;;25.50;61.50;;;;;;4993051;28;20033;-78
2021/07/28 04:07:45;;;;;;;23.73;13.10;;;25.60;61.60;;;;;;4993228;28;20026;-78
2021/07/28 04:10:11;;;;;;;19.58;13.13;;;25.80;61.60;;;;;;4992556;28;20018;-78
2021/07/28 04:12:37;;;;;;;26.20;12.85;;;26.10;61.40;;;;;;4992863;28;20019;-78
2021/07/28 04:15:04;;;;;;;16.30;12.68;;;26.40;61.00;;;;;;4992126;28;20481;-79
2021/07/28 04:17:30;;;;;;;29.45;13.35;;;26.60;60.50;;;;;;4992260;28;20072;-78
2021/07/28 04:19:55;;;;;;;19.77;12.30;;;27.00;60.00;;;;;;4991673;28;20071;-76
2021/07/28 04:22:22;;;;;;;23.58;13.02;;;27.50;59.60;;;;;;4992573;28;20030;-77
2021/07/28 04:24:48;;;;;;;22.27;12.75;;;28.10;58.80;;;;;;4991960;28;20030;-76
2021/07/28 04:27:14;;;;;;;23.27;13.65;;;28.90;57.50;;;;;;4992543;28;20476;-77
2021/07/28 04:29:40;;;;;;;23.27;13.23;;;29.50;56.10;;;;;;4992074;28;20034;-77
2021/07/28 04:32:06;;;;;;;28.63;13.50;;;29.90;55.00;;;;;;4991892;28;20080;-80
2021/07/28 04:34:35;;;;;;;20.17;11.85;;;30.00;54.30;;;;;;4992289;28;20027;-80
2021/07/28 04:37:01;;;;;;;19.30;12.40;;;29.90;53.90;;;;;;4991696;28;20029;-79
2021/07/28 04:39:27;;;;;;;20.33;12.82;;;29.70;54.60;;;;;;4991829;28;20412;-78
2021/07/28 04:41:52;;;;;;;25.35;13.98;;;29.40;54.20;;;;;;4991806;28;20333;-79
2021/07/28 04:44:18;;;;;;;22.27;14.43;;;29.10;54.90;;;;;;4974546;28;20030;-79
2021/07/28 04:46:44;;;;;;;22.98;15.00;;;28.80;55.10;;;;;;4992067;28;20034;-79
2021/07/28 04:49:09;;;;;;;21.02;14.27;;;28.60;55.80;;;;;;4992402;28;20034;-78
2021/07/28 04:51:35;;;;;;;19.92;13.50;;;28.40;56.30;;;;;;4992054;28;20401;-79
2021/07/28 04:54:01;;;;;;;21.90;13.75;;;28.20;56.60;;;;;;4992048;28;20097;-79
2021/07/28 04:56:26;;;;;;;19.45;12.80;;;28.00;56.60;;;;;;4991376;28;20089;-76
2021/07/28 04:58:52;;;;;;;26.25;13.88;;;27.90;56.50;;;;;;4991465;28;20109;-75
2021/07/28 05:01:18;;;;;;;31.95;14.75;;;27.90;56.80;;;;;;4991668;28;20089;-77
2021/07/28 05:03:43;;;;;;;26.35;13.70;;;27.90;57.10;;;;;;4991533;28;20061;-75
2021/07/28 05:06:09;;;;;;;21.50;14.55;;;27.80;57.10;;;;;;4991305;28;20131;-75
2021/07/28 05:08:35;;;;;;;35.50;14.77;;;27.90;57.90;;;;;;4991495;28;20037;-76
2021/07/28 05:11:00;;;;;;;38.75;15.00;;;28.00;57.30;;;;;;4991806;28;20057;-77
2021/07/28 05:13:26;;;;;;;27.20;14.27;;;28.00;57.40;;;;;;4991627;28;20079;-76
2021/07/28 05:15:55;;;;;;;24.50;13.15;;;28.10;57.50;;;;;;4990800;28;20052;-76
2021/07/28 05:18:24;;;;;;;25.67;13.65;;;28.10;57.40;;;;;;4991154;28;20030;-76
2021/07/28 05:20:49;;;;;;;22.90;13.48;;;28.10;57.20;;;;;;4991629;28;20019;-77
2021/07/28 05:23:15;;;;;;;25.67;13.98;;;28.20;57.00;;;;;;4990559;28;20050;-78
2021/07/28 05:25:41;;;;;;;25.05;14.23;;;28.20;56.90;;;;;;4991205;28;20022;-77
2021/07/28 05:28:07;;;;;;;26.17;14.15;;;28.30;57.00;;;;;;4991182;28;20381;-76
2021/07/28 05:30:33;;;;;;;21.85;14.93;;;28.40;57.00;;;;;;4991299;28;20097;-77
2021/07/28 05:32:59;;;;;;;25.48;14.10;;;28.50;57.00;;;;;;4977619;28;20548;-76
2021/07/28 05:35:25;;;;;;;27.00;15.52;;;28.40;57.20;;;;;;4995362;28;20107;-77
2021/07/28 05:38:01;;;;;;;28.02;15.18;;;28.30;57.30;;;;;;4994224;28;20034;-76
2021/07/28 05:40:27;;;;;;;24.40;15.35;;;28.30;57.50;;;;;;4994528;28;20492;-76
2021/07/28 05:42:53;;;;;;;23.80;15.95;;;28.10;57.60;;;;;;4994065;28;20022;-77
2021/07/28 05:45:19;;;;;;;29.67;16.30;;;28.00;57.90;;;;;;4993491;28;20045;-76
2021/07/28 05:47:45;;;;;;;44.78;19.25;;;28.00;58.40;;;;;;4994012;28;20023;-76
2021/07/28 05:50:15;;;;;;;43.38;21.25;;;27.90;58.80;;;;;;4977099;28;20022;-77
2021/07/28 05:52:43;;;;;;;48.13;23.48;;;27.80;59.00;;;;;;4994163;28;20042;-76
2021/07/28 05:55:09;;;;;;;39.35;20.40;;;27.80;59.10;;;;;;4994470;28;20068;-75
2021/07/28 05:57:35;;;;;;;54.95;24.38;;;27.80;59.00;;;;;;4994307;28;20421;-76
2021/07/28 06:00:05;;;;;;;48.00;24.02;;;27.90;58.90;;;;;;4994382;28;20126;-77
2021/07/28 06:02:31;;;;;;;49.60;22.08;;;27.90;58.90;;;;;;4994230;28;20050;-77
2021/07/28 06:04:57;;;;;;;53.53;25.63;;;27.90;58.90;;;;;;4994492;28;20117;-77
2021/07/28 06:07:22;;;;;;;49.35;22.90;;;27.90;58.70;;;;;;4994359;28;20378;-75
2021/07/28 06:09:48;;;;;;;46.50;22.23;;;28.00;58.40;;;;;;4994440;28;20066;-77
2021/07/28 06:12:17;;;;;;;46.38;22.20;;;27.90;58.30;;;;;;4994022;28;20029;-79
2021/07/28 06:14:46;;;;;;;52.72;24.25;;;28.00;58.30;;;;;;4994309;28;20457;-76
2021/07/28 06:17:12;;;;;;;39.40;19.20;;;28.00;58.30;;;;;;4994122;28;20026;-76
2021/07/28 06:19:38;;;;;;;48.90;22.00;;;28.00;58.20;;;;;;4993664;28;20037;-76
2021/07/28 06:22:04;;;;;;;51.67;21.98;;;27.90;58.00;;;;;;4993473;28;20027;-77
2021/07/28 06:24:30;;;;;;;39.63;21.77;;;27.90;58.10;;;;;;4993824;28;20101;-76
2021/07/28 06:26:57;;;;;;;52.67;20.85;;;27.80;58.40;;;;;;4993819;28;20030;-76
2021/07/28 06:29:25;;;;;;;35.65;15.65;;;27.70;58.90;;;;;;4976079;28;20030;-76
2021/07/28 06:31:51;;;;;;;32.67;15.57;;;27.60;59.50;;;;;;4993923;28;20069;-76
2021/07/28 06:34:17;;;;;;;31.00;15.90;;;27.40;60.20;;;;;;4993467;28;20088;-76
2021/07/28 06:36:43;;;;;;;31.95;17.60;;;27.20;60.70;;;;;;4993543;28;20030;-76
2021/07/28 06:39:08;;;;;;;26.38;15.02;;;27.10;61.20;;;;;;4993863;28;20473;-76
2021/07/28 06:41:34;;;;;;;26.98;15.27;;;26.90;61.50;;;;;;4993282;28;20072;-77
2021/07/28 06:44:00;;;;;;;24.77;14.90;;;26.80;61.90;;;;;;5004959;28;20065;-77
2021/07/28 06:46:25;;;;;;;35.40;16.55;;;26.70;62.20;;;;;;4997674;28;20038;-76
2021/07/28 06:48:51;;;;;;;32.42;15.95;;;26.60;62.80;;;;;;5002464;28;20045;-78
2021/07/28 06:51:17;;;;;;;35.35;16.73;;;26.50;63.50;;;;;;5002603;28;20433;-78
2021/07/28 06:53:42;;;;;;;23.55;14.80;;;26.30;65.00;;;;;;4993446;28;20125;-77
2021/07/28 06:56:11;;;;;;;21.48;13.32;;;26.10;66.70;;;;;;4993597;28;20077;-77
2021/07/28 06:58:40;;;;;;;16.95;11.00;;;25.90;67.80;;;;;;4993506;28;20476;-78
2021/07/28 07:01:07;;;;;;;24.85;12.88;;;25.60;69.20;;;;;;4993188;28;20030;-76
2021/07/28 07:03:34;;;;;;;18.90;10.63;;;25.40;70.60;;;;;;4993317;28;20048;-76
2021/07/28 07:06:00;;;;;;;16.50;8.45;;;25.20;71.70;;;;;;4993340;28;20022;-77
2021/07/28 07:08:25;;;;;;;16.52;9.02;;;25.00;72.90;;;;;;4993173;28;20540;-77
2021/07/28 07:10:53;;;;;;;27.45;8.73;;;24.70;74.10;;;;;;4993477;28;20410;-77
2021/07/28 07:13:18;;;;;;;21.60;9.02;;;24.40;75.20;;;;;;4975564;28;20432;-76
2021/07/28 07:15:44;;;;;;;15.55;7.18;;;24.00;77.50;;;;;;4993320;28;20027;-76
2021/07/28 07:18:10;;;;;;;19.27;7.55;;;23.70;79.00;;;;;;4993285;28;20377;-77
2021/07/28 07:20:36;;;;;;;20.17;8.63;;;23.40;79.90;;;;;;4993337;28;20097;-76
2021/07/28 07:23:02;;;;;;;16.63;8.43;;;23.20;82.20;;;;;;4993315;28;20023;-78
2021/07/28 07:25:27;;;;;;;14.73;7.57;;;23.20;83.90;;;;;;4993189;28;20034;-77
2021/07/28 07:27:53;;;;;;;19.45;8.43;;;23.10;84.80;;;;;;4992887;28;20030;-75
2021/07/28 07:30:19;;;;;;;20.65;9.00;;;23.10;85.70;;;;;;4992948;28;20373;-76
2021/07/28 07:32:45;;;;;;;11.95;7.93;;;23.00;86.50;;;;;;4993179;28;20041;-77
2021/07/28 07:35:11;;;;;;;14.88;8.23;;;23.00;87.70;;;;;;4993326;28;20449;-76
2021/07/28 07:37:37;;;;;;;15.40;7.53;;;23.00;88.10;;;;;;4992874;28;20084;-76
2021/07/28 07:40:03;;;;;;;12.35;7.32;;;23.00;88.40;;;;;;4992931;28;20420;-78
2021/07/28 07:42:30;;;;;;;14.55;7.10;;;23.00;88.80;;;;;;4975481;28;20037;-76
2021/07/28 07:44:58;;;;;;;14.90;7.80;;;23.00;89.10;;;;;;4994120;28;20077;-88
2021/07/28 07:47:24;;;;;;;16.35;7.13;;;23.00;89.40;;;;;;4996185;28;20114;-88
2021/07/28 07:49:49;;;;;;;11.02;7.28;;;23.00;89.90;;;;;;4994794;28;20452;-89
2021/07/28 07:52:15;;;;;;;14.32;8.15;;;23.00;90.30;;;;;;4994652;28;20051;-89
2021/07/28 07:54:41;;;;;;;13.20;7.45;;;23.00;90.80;;;;;;4993754;28;20473;-90
2021/07/28 07:57:06;;;;;;;15.82;7.93;;;22.90;91.00;;;;;;4994914;28;20057;-90
2021/07/28 07:59:32;;;;;;;14.63;7.20;;;23.00;91.50;;;;;;4994649;28;20069;-89
2021/07/28 08:01:58;;;;;;;10.63;7.07;;;23.00;91.70;;;;;;4994747;28;20026;-89
2021/07/28 08:04:24;;;;;;;14.70;7.70;;;23.10;92.00;;;;;;4978000;28;20077;-91
2021/07/28 08:06:50;;;;;;;11.80;7.70;;;23.20;92.20;;;;;;4994715;28;20353;-90
2021/07/28 08:09:16;;;;;;;9.77;7.45;;;23.40;92.10;;;;;;4976841;28;20477;-89
2021/07/28 08:11:42;;;;;;;9.73;6.55;;;23.50;92.20;;;;;;4994331;28;20052;-91
2021/07/28 08:14:07;;;;;;;11.35;7.07;;;23.70;92.20;;;;;;4993778;28;20023;-86
2021/07/28 08:16:33;;;;;;;12.43;7.30;;;23.90;92.20;;;;;;4994181;28;20033;-83
2021/07/28 08:18:59;;;;;;;12.10;7.28;;;24.20;91.80;;;;;;4994198;28;20030;-90
2021/07/28 08:21:25;;;;;;;11.95;7.43;;;24.60;91.60;;;;;;4994516;28;20026;-89
2021/07/28 08:23:50;;;;;;;8.95;7.28;;;25.00;91.00;;;;;;4976631;28;20385;-92
2021/07/28 08:26:16;;;;;;;9.05;7.18;;;25.50;90.50;;;;;;4976527;28;20030;-91
2021/07/28 08:28:43;;;;;;;16.08;7.88;;;26.00;90.20;;;;;;4977068;28;20062;-90
2021/07/28 08:31:09;;;;;;;12.77;7.90;;;26.60;88.90;;;;;;4977673;28;20031;-94
2021/07/28 08:33:35;;;;;;;11.38;7.35;;;27.10;87.10;;;;;;4996077;28;20106;-90
2021/07/28 08:36:03;;;;;;;14.90;8.88;;;27.50;85.60;;;;;;4981547;28;20054;-92
2021/07/28 08:38:30;;;;;;;12.57;8.30;;;27.90;84.50;;;;;;4998189;28;20027;-91
2021/07/28 08:41:01;;;;;;;13.70;9.85;;;28.40;83.40;;;;;;4984228;28;20105;-95
2021/07/28 08:43:34;;;;;;;16.00;10.05;;;28.90;81.60;;;;;;4977812;28;20023;-90
2021/07/28 08:46:05;;;;;;;19.58;10.40;;;29.40;80.00;;;;;;4976959;28;20037;-94
2021/07/28 08:48:31;;;;;;;12.55;8.98;;;29.70;78.30;;;;;;4981110;28;20026;-91
2021/07/28 08:50:59;;;;;;;16.95;9.55;;;30.10;77.00;;;;;;4980383;28;20127;-92
2021/07/28 08:53:25;;;;;;;12.98;9.32;;;30.40;75.40;;;;;;4978473;28;20142;-93
2021/07/28 08:55:58;;;;;;;13.93;9.55;;;30.60;73.40;;;;;;4975071;28;20058;-94
2021/07/28 08:58:26;;;;;;;13.85;8.52;;;30.80;71.90;;;;;;4975453;28;20027;-94
2021/07/28 09:00:53;;;;;;;10.15;8.35;;;31.00;71.70;;;;;;4973514;28;20030;-92
2021/07/28 09:03:19;;;;;;;15.98;8.50;;;31.10;70.60;;;;;;4973705;28;20524;-83
2021/07/28 09:05:47;;;;;;;15.60;9.13;;;31.40;70.20;;;;;;4973845;28;20027;-84
2021/07/28 09:08:24;;;;;;;15.55;8.38;;;31.50;69.00;;;;;;4976191;28;20500;-83
2021/07/28 09:11:05;;;;;;;16.00;8.23;;;31.60;67.50;;;;;;4977857;28;20027;-84
2021/07/28 09:13:39;;;;;;;15.15;8.98;;;31.70;67.70;;;;;;4976678;28;20026;-84
2021/07/28 09:16:10;;;;;;;20.85;9.30;;;32.00;68.10;;;;;;4976637;28;20026;-86
2021/07/28 09:18:39;;;;;;;9.60;7.38;;;32.20;68.50;;;;;;4977786;28;20470;-86
2021/07/28 09:21:21;;;;;;;13.68;8.38;;;32.30;66.80;;;;;;4976351;28;20035;-85
2021/07/28 09:23:57;;;;;;;12.95;7.63;;;32.50;66.60;;;;;;4977591;28;20027;-86
2021/07/28 09:26:33;;;;;;;13.90;7.68;;;32.60;65.70;;;;;;4978322;28;20074;-83
2021/07/28 09:29:19;;;;;;;10.40;7.35;;;32.80;65.20;;;;;;4978659;28;20051;-85
2021/07/28 09:31:51;;;;;;;13.05;7.53;;;33.00;64.60;;;;;;4978106;28;20030;-85
2021/07/28 09:34:23;;;;;;;12.65;7.78;;;33.20;64.20;;;;;;4977787;28;20046;-86
2021/07/28 09:36:52;;;;;;;11.25;7.53;;;33.30;63.90;;;;;;4976359;28;20049;-86
2021/07/28 09:39:36;;;;;;;11.80;7.45;;;33.40;63.40;;;;;;4977450;28;20027;-85
2021/07/28 09:42:16;;;;;;;9.98;7.78;;;33.50;64.30;;;;;;4975466;28;20033;-84
2021/07/28 09:44:46;;;;;;;18.40;9.63;;;33.60;63.70;;;;;;4977122;28;20118;-85
2021/07/28 09:47:16;;;;;;;14.93;8.38;;;33.70;64.00;;;;;;4977331;28;20031;-83
2021/07/28 09:49:46;;;;;;;14.95;8.15;;;33.80;63.70;;;;;;4977409;28;20031;-86
2021/07/28 09:52:17;;;;;;;15.40;8.63;;;33.90;63.20;;;;;;4991670;28;20042;-85
2021/07/28 09:54:46;;;;;;;13.13;8.73;;;33.90;63.10;;;;;;4980113;28;20054;-85
2021/07/28 09:57:20;;;;;;;14.20;9.50;;;33.80;62.50;;;;;;4979929;28;20023;-87
2021/07/28 10:00:03;;;;;;;11.82;8.85;;;33.90;63.00;;;;;;4980239;28;20457;-87
2021/07/28 10:02:32;;;;;;;18.95;9.48;;;33.90;64.30;;;;;;4996911;28;20110;-87
2021/07/28 10:05:00;;;;;;;13.93;10.07;;;33.90;63.70;;;;;;4996887;28;20026;-84
2021/07/28 10:07:34;;;;;;;11.75;9.80;;;34.10;63.40;;;;;;4997089;28;20033;-88
2021/07/28 10:10:09;;;;;;;13.77;8.98;;;34.10;63.30;;;;;;4979547;28;20041;-89
2021/07/28 10:12:36;;;;;;;17.45;8.73;;;34.10;62.20;;;;;;4981045;28;20018;-88
2021/07/28 10:15:08;;;;;;;13.32;8.93;;;34.00;61.90;;;;;;5000678;28;20015;-86
2021/07/28 10:17:35;;;;;;;18.90;9.55;;;33.90;61.20;;;;;;4996290;28;20576;-92
2021/07/28 10:20:01;;;;;;;10.50;8.80;;;33.90;61.10;;;;;;4979827;28;20031;-81
2021/07/28 10:22:27;;;;;;;11.90;9.45;;;33.90;60.80;;;;;;4998365;28;20030;-90
2021/07/28 10:24:54;;;;;;;12.18;8.90;;;33.70;60.20;;;;;;4983209;28;20026;-92
2021/07/28 10:27:21;;;;;;;15.35;10.25;;;33.60;60.00;;;;;;4999382;28;20127;-90
2021/07/28 10:29:50;;;;;;;16.17;9.80;;;33.50;60.40;;;;;;4998715;28;20109;-90
2021/07/28 10:32:30;;;;;;;19.83;9.48;;;33.50;61.10;;;;;;4980591;28;20117;-91
2021/07/28 10:35:19;;;;;;;13.68;9.35;;;33.50;61.20;;;;;;4980100;28;20506;-91
2021/07/28 10:37:45;;;;;;;10.65;8.75;;;33.50;61.60;;;;;;4978915;28;20473;-89
2021/07/28 10:40:31;;;;;;;11.60;9.48;;;33.50;61.30;;;;;;4996231;28;20049;-89
2021/07/28 10:42:56;;;;;;;21.67;10.43;;;33.40;61.50;;;;;;4996476;28;20023;-90
2021/07/28 10:45:23;;;;;;;17.65;10.07;;;33.40;61.40;;;;;;4979654;28;20027;-88
2021/07/28 10:47:53;;;;;;;16.80;9.50;;;33.40;60.90;;;;;;4996687;28;20034;-85
2021/07/28 10:50:32;;;;;;;19.33;9.90;;;33.40;61.20;;;;;;4977943;28;20354;-84
2021/07/28 10:53:02;;;;;;;17.73;9.38;;;33.40;60.60;;;;;;4995408;28;20031;-84
2021/07/28 10:55:31;;;;;;;13.77;9.70;;;33.40;60.00;;;;;;4995037;28;20030;-85
2021/07/28 10:58:09;;;;;;;14.60;9.40;;;33.30;59.70;;;;;;4995019;28;20041;-83
2021/07/28 11:00:38;;;;;;;19.05;9.50;;;33.30;59.80;;;;;;4995011;28;20026;-82
2021/07/28 11:03:07;;;;;;;18.65;9.93;;;33.20;59.20;;;;;;4995191;28;20041;-82
2021/07/28 11:05:34;;;;;;;15.68;9.65;;;33.20;59.10;;;;;;4977363;28;20384;-83
2021/07/28 11:08:03;;;;;;;14.02;10.20;;;33.10;59.20;;;;;;4994964;28;20028;-84
2021/07/28 11:10:30;;;;;;;19.02;10.30;;;33.10;59.20;;;;;;4994991;28;20053;-82
2021/07/28 11:12:57;;;;;;;15.85;10.10;;;33.10;59.50;;;;;;4995370;28;20018;-82
2021/07/28 11:15:23;;;;;;;17.30;9.93;;;33.10;58.70;;;;;;4994640;28;20105;-81
2021/07/28 11:17:53;;;;;;;24.95;10.48;;;33.10;58.60;;;;;;4994641;28;20050;-81
2021/07/28 11:20:32;;;;;;;14.73;10.38;;;33.00;58.80;;;;;;5008808;28;20026;-81
2021/07/28 11:23:24;;;;;;;16.05;10.65;;;33.10;59.00;;;;;;4997821;28;20121;-83
2021/07/28 11:25:53;;;;;;;16.60;11.60;;;33.20;59.60;;;;;;4994840;28;20114;-83
2021/07/28 11:28:20;;;;;;;12.00;9.80;;;33.20;59.50;;;;;;4994267;28;20023;-84
2021/07/28 11:31:01;;;;;;;13.65;10.40;;;33.20;58.90;;;;;;4977078;28;20073;-83
2021/07/28 11:33:28;;;;;;;21.03;11.50;;;33.10;58.50;;;;;;4977015;28;20026;-82
2021/07/28 11:35:56;;;;;;;20.25;11.00;;;33.10;58.70;;;;;;4976491;28;20039;-84
2021/07/28 11:38:24;;;;;;;16.70;11.65;;;33.10;58.90;;;;;;4994529;28;20023;-83
2021/07/28 11:40:52;;;;;;;22.17;13.55;;;33.10;59.40;;;;;;4994230;28;20457;-84
2021/07/28 11:43:22;;;;;;;24.83;11.88;;;33.20;59.50;;;;;;4976963;28;20031;-86
2021/07/28 11:45:49;;;;;;;18.75;12.30;;;33.20;59.10;;;;;;4976714;28;20062;-83
2021/07/28 11:48:31;;;;;;;18.20;11.05;;;33.30;59.50;;;;;;4994387;28;20045;-86
2021/07/28 11:51:03;;;;;;;16.73;11.73;;;33.30;59.10;;;;;;4976633;28;20092;-83
2021/07/28 11:53:30;;;;;;;21.35;11.10;;;33.30;59.20;;;;;;4993647;28;20830;-84
2021/07/28 11:56:05;;;;;;;25.70;10.65;;;33.30;59.60;;;;;;4993295;28;20073;-82
2021/07/28 11:58:31;;;;;;;14.45;11.10;;;33.30;59.70;;;;;;4975881;28;20031;-84
2021/07/28 12:00:57;;;;;;;23.88;10.98;;;33.30;59.70;;;;;;4976475;28;20029;-84
2021/07/28 12:03:26;;;;;;;14.27;11.35;;;33.30;59.60;;;;;;4994499;28;20088;-83
2021/07/28 12:05:59;;;;;;;21.13;11.50;;;33.20;59.80;;;;;;4976651;28;20030;-84
2021/07/28 12:08:29;;;;;;;17.25;11.50;;;33.20;60.00;;;;;;4993924;28;20101;-83
2021/07/28 12:11:16;;;;;;;19.42;11.27;;;33.30;59.60;;;;;;4976825;28;20026;-85
2021/07/28 12:13:47;;;;;;;24.33;12.65;;;33.30;59.70;;;;;;4976564;28;20121;-84
2021/07/28 12:16:14;;;;;;;19.23;11.05;;;33.40;59.80;;;;;;4977049;28;20022;-84
2021/07/28 12:18:41;;;;;;;20.25;11.00;;;33.40;59.80;;;;;;4993755;28;20034;-84
2021/07/28 12:21:08;;;;;;;21.52;10.40;;;33.30;59.90;;;;;;4994154;28;20489;-84
2021/07/28 12:23:33;;;;;;;16.67;10.63;;;33.40;59.90;;;;;;4993697;28;20041;-80
2021/07/28 12:25:59;;;;;;;14.75;10.70;;;33.40;59.40;;;;;;4993720;28;20034;-85
2021/07/28 12:28:45;;;;;;;15.38;11.02;;;33.50;59.00;;;;;;4994043;28;20026;-85
2021/07/28 12:31:24;;;;;;;16.73;10.45;;;33.50;58.90;;;;;;4976800;28;20026;-82
2021/07/28 12:33:50;;;;;;;15.38;10.60;;;33.50;58.80;;;;;;4975958;28;20031;-81
2021/07/28 12:36:26;;;;;;;19.13;11.13;;;33.50;58.80;;;;;;4993823;28;20073;-81